sensor_id;sensor_type;location;lat;lon;timestamp;P1;durP1;ratioP1;P2;durP2;ratioP2
7158;SDS011;63175;52.374;13.132;2023-02-28T00:00:32;7.03;;;4.30;;
7158;SDS011;63175;52.374;13.132;2023-02-28T00:02:59;4.80;;;3.00;;
7158;SDS011;63175;52.374;13.132;2023-02-28T00:05:26;3.20;;;2.60;;
7158;SDS011;63175;52.374;13.132;2023-02-28T00:07:54;3.63;;;3.20;;
7158;SDS011;63175;52.374;13.132;2023-02-28T00:10:22;3.83;;;3.30;;
7158;SDS011;63175;52.374;13.132;2023-02-28T00:12:52;3.53;;;2.77;;
7158;SDS011;63175;52.374;13.132;2023-02-28T00:15:22;7.83;;;3.30;;
7158;SDS011;63175;52.374;13.132;2023-02-28T00:17:50;4.33;;;3.93;;
7158;SDS011;63175;52.374;13.132;2023-02-28T00:20:17;3.87;;;3.40;;
7158;SDS011;63175;52.374;13.132;2023-02-28T00:22:46;2.97;;;2.77;;
7158;SDS011;63175;52.374;13.132;2023-02-28T00:25:15;3.03;;;2.83;;
7158;SDS011;63175;52.374;13.132;2023-02-28T00:27:44;3.17;;;2.87;;
7158;SDS011;63175;52.374;13.132;2023-02-28T00:30:12;3.77;;;3.37;;
7158;SDS011;63175;52.374;13.132;2023-02-28T00:32:40;3.00;;;2.70;;
7158;SDS011;63175;52.374;13.132;2023-02-28T00:35:09;4.27;;;3.17;;
7158;SDS011;63175;52.374;13.132;2023-02-28T00:37:36;4.23;;;2.70;;
7158;SDS011;63175;52.374;13.132;2023-02-28T00:40:04;3.40;;;2.90;;
7158;SDS011;63175;52.374;13.132;2023-02-28T00:42:32;3.77;;;2.80;;
7158;SDS011;63175;52.374;13.132;2023-02-28T00:44:59;4.10;;;2.60;;
7158;SDS011;63175;52.374;13.132;2023-02-28T00:47:28;4.27;;;3.40;;
7158;SDS011;63175;52.374;13.132;2023-02-28T00:49:55;4.23;;;2.57;;
7158;SDS011;63175;52.374;13.132;2023-02-28T00:52:23;3.53;;;2.83;;
7158;SDS011;63175;52.374;13.132;2023-02-28T00:54:50;2.73;;;2.53;;
7158;SDS011;63175;52.374;13.132;2023-02-28T00:57:17;2.93;;;2.73;;
7158;SDS011;63175;52.374;13.132;2023-02-28T00:59:44;3.50;;;3.20;;
7158;SDS011;63175;52.374;13.132;2023-02-28T01:02:11;3.00;;;2.70;;
7158;SDS011;63175;52.374;13.132;2023-02-28T01:04:38;3.70;;;3.10;;
7158;SDS011;63175;52.374;13.132;2023-02-28T01:07:05;3.97;;;2.40;;
7158;SDS011;63175;52.374;13.132;2023-02-28T01:09:33;2.93;;;2.70;;
7158;SDS011;63175;52.374;13.132;2023-02-28T01:12:00;3.20;;;2.90;;
7158;SDS011;63175;52.374;13.132;2023-02-28T01:14:27;3.33;;;2.93;;
7158;SDS011;63175;52.374;13.132;2023-02-28T01:16:54;3.43;;;2.70;;
7158;SDS011;63175;52.374;13.132;2023-02-28T01:19:20;4.37;;;2.77;;
7158;SDS011;63175;52.374;13.132;2023-02-28T01:21:47;3.07;;;2.57;;
7158;SDS011;63175;52.374;13.132;2023-02-28T01:24:14;2.90;;;2.70;;
7158;SDS011;63175;52.374;13.132;2023-02-28T01:26:42;2.50;;;2.30;;
7158;SDS011;63175;52.374;13.132;2023-02-28T01:29:09;4.00;;;3.23;;
7158;SDS011;63175;52.374;13.132;2023-02-28T01:31:36;5.10;;;3.30;;
7158;SDS011;63175;52.374;13.132;2023-02-28T01:34:03;5.80;;;2.97;;
7158;SDS011;63175;52.374;13.132;2023-02-28T01:36:30;3.70;;;3.00;;
7158;SDS011;63175;52.374;13.132;2023-02-28T01:38:56;3.60;;;2.83;;
7158;SDS011;63175;52.374;13.132;2023-02-28T01:41:24;4.57;;;2.90;;
7158;SDS011;63175;52.374;13.132;2023-02-28T01:43:56;6.87;;;5.10;;
7158;SDS011;63175;52.374;13.132;2023-02-28T01:46:28;11.00;;;6.70;;
7158;SDS011;63175;52.374;13.132;2023-02-28T01:48:57;6.80;;;5.83;;
7158;SDS011;63175;52.374;13.132;2023-02-28T01:51:29;7.20;;;5.13;;
7158;SDS011;63175;52.374;13.132;2023-02-28T01:54:01;8.00;;;4.30;;
7158;SDS011;63175;52.374;13.132;2023-02-28T01:56:32;7.30;;;4.37;;
7158;SDS011;63175;52.374;13.132;2023-02-28T01:59:03;5.47;;;3.80;;
7158;SDS011;63175;52.374;13.132;2023-02-28T02:01:31;5.10;;;3.50;;
7158;SDS011;63175;52.374;13.132;2023-02-28T02:03:59;6.70;;;3.43;;
7158;SDS011;63175;52.374;13.132;2023-02-28T02:06:29;5.60;;;3.77;;
7158;SDS011;63175;52.374;13.132;2023-02-28T02:08:59;3.50;;;3.20;;
7158;SDS011;63175;52.374;13.132;2023-02-28T02:11:26;6.00;;;3.70;;
7158;SDS011;63175;52.374;13.132;2023-02-28T02:14:09;5.07;;;3.30;;
7158;SDS011;63175;52.374;13.132;2023-02-28T02:17:02;3.27;;;3.03;;
7158;SDS011;63175;52.374;13.132;2023-02-28T02:19:44;4.00;;;2.70;;
7158;SDS011;63175;52.374;13.132;2023-02-28T02:22:52;4.13;;;3.17;;
7158;SDS011;63175;52.374;13.132;2023-02-28T02:25:36;3.00;;;2.80;;
7158;SDS011;63175;52.374;13.132;2023-02-28T02:28:14;3.40;;;2.83;;
7158;SDS011;63175;52.374;13.132;2023-02-28T02:31:08;3.83;;;3.40;;
7158;SDS011;63175;52.374;13.132;2023-02-28T02:36:47;3.33;;;3.03;;
7158;SDS011;63175;52.374;13.132;2023-02-28T02:39:17;4.40;;;3.50;;
7158;SDS011;63175;52.374;13.132;2023-02-28T02:41:52;3.60;;;3.30;;
7158;SDS011;63175;52.374;13.132;2023-02-28T02:44:20;3.60;;;3.23;;
7158;SDS011;63175;52.374;13.132;2023-02-28T02:46:53;3.40;;;3.10;;
7158;SDS011;63175;52.374;13.132;2023-02-28T02:49:25;6.90;;;3.40;;
7158;SDS011;63175;52.374;13.132;2023-02-28T02:51:58;3.43;;;3.13;;
7158;SDS011;63175;52.374;13.132;2023-02-28T02:54:30;3.93;;;3.37;;
7158;SDS011;63175;52.374;13.132;2023-02-28T02:57:01;3.33;;;3.03;;
7158;SDS011;63175;52.374;13.132;2023-02-28T02:59:31;5.87;;;3.70;;
7158;SDS011;63175;52.374;13.132;2023-02-28T03:02:00;4.23;;;3.50;;
7158;SDS011;63175;52.374;13.132;2023-02-28T03:04:30;2.40;;;2.30;;
7158;SDS011;63175;52.374;13.132;2023-02-28T03:07:02;6.27;;;3.47;;
7158;SDS011;63175;52.374;13.132;2023-02-28T03:09:29;3.70;;;2.80;;
7158;SDS011;63175;52.374;13.132;2023-02-28T03:12:00;3.90;;;3.50;;
7158;SDS011;63175;52.374;13.132;2023-02-28T03:14:31;3.10;;;2.80;;
7158;SDS011;63175;52.374;13.132;2023-02-28T03:17:11;3.00;;;2.70;;
7158;SDS011;63175;52.374;13.132;2023-02-28T03:19:54;3.47;;;2.80;;
7158;SDS011;63175;52.374;13.132;2023-02-28T03:25:19;3.30;;;3.10;;
7158;SDS011;63175;52.374;13.132;2023-02-28T03:27:53;4.03;;;3.10;;
7158;SDS011;63175;52.374;13.132;2023-02-28T03:30:27;3.30;;;3.00;;
7158;SDS011;63175;52.374;13.132;2023-02-28T03:33:00;4.20;;;3.20;;
7158;SDS011;63175;52.374;13.132;2023-02-28T03:35:32;3.03;;;2.83;;
7158;SDS011;63175;52.374;13.132;2023-02-28T03:38:05;3.43;;;2.77;;
7158;SDS011;63175;52.374;13.132;2023-02-28T03:40:39;3.40;;;2.70;;
7158;SDS011;63175;52.374;13.132;2023-02-28T03:43:09;4.57;;;3.07;;
7158;SDS011;63175;52.374;13.132;2023-02-28T03:45:42;4.50;;;4.10;;
7158;SDS011;63175;52.374;13.132;2023-02-28T03:48:12;3.60;;;3.30;;
7158;SDS011;63175;52.374;13.132;2023-02-28T03:50:42;4.83;;;3.00;;
7158;SDS011;63175;52.374;13.132;2023-02-28T03:53:13;3.63;;;3.30;;
7158;SDS011;63175;52.374;13.132;2023-02-28T03:55:47;3.00;;;2.80;;
7158;SDS011;63175;52.374;13.132;2023-02-28T03:58:17;2.93;;;2.67;;
7158;SDS011;63175;52.374;13.132;2023-02-28T04:00:52;9.80;;;3.00;;
7158;SDS011;63175;52.374;13.132;2023-02-28T04:03:23;5.20;;;3.13;;
7158;SDS011;63175;52.374;13.132;2023-02-28T04:05:50;3.87;;;3.27;;
7158;SDS011;63175;52.374;13.132;2023-02-28T04:08:20;3.80;;;3.30;;
7158;SDS011;63175;52.374;13.132;2023-02-28T04:10:50;7.07;;;4.70;;
7158;SDS011;63175;52.374;13.132;2023-02-28T04:13:22;5.70;;;4.33;;
7158;SDS011;63175;52.374;13.132;2023-02-28T04:15:49;6.33;;;4.27;;
7158;SDS011;63175;52.374;13.132;2023-02-28T04:18:15;4.10;;;3.70;;
7158;SDS011;63175;52.374;13.132;2023-02-28T04:20:42;5.13;;;4.07;;
7158;SDS011;63175;52.374;13.132;2023-02-28T04:23:09;3.70;;;3.37;;
7158;SDS011;63175;52.374;13.132;2023-02-28T04:25:37;3.30;;;3.07;;
7158;SDS011;63175;52.374;13.132;2023-02-28T04:28:05;4.10;;;3.70;;
7158;SDS011;63175;52.374;13.132;2023-02-28T04:30:32;3.10;;;2.80;;
7158;SDS011;63175;52.374;13.132;2023-02-28T04:33:00;3.40;;;3.10;;
7158;SDS011;63175;52.374;13.132;2023-02-28T04:35:27;3.00;;;2.70;;
7158;SDS011;63175;52.374;13.132;2023-02-28T04:37:54;3.50;;;2.83;;
7158;SDS011;63175;52.374;13.132;2023-02-28T04:40:20;3.47;;;2.80;;
7158;SDS011;63175;52.374;13.132;2023-02-28T04:42:49;4.97;;;3.40;;
7158;SDS011;63175;52.374;13.132;2023-02-28T04:45:16;2.97;;;2.77;;
7158;SDS011;63175;52.374;13.132;2023-02-28T04:47:43;3.67;;;3.03;;
7158;SDS011;63175;52.374;13.132;2023-02-28T04:50:10;3.70;;;3.03;;
7158;SDS011;63175;52.374;13.132;2023-02-28T04:52:36;4.37;;;3.10;;
7158;SDS011;63175;52.374;13.132;2023-02-28T04:55:04;3.83;;;3.37;;
7158;SDS011;63175;52.374;13.132;2023-02-28T04:57:31;4.97;;;3.93;;
7158;SDS011;63175;52.374;13.132;2023-02-28T04:59:59;4.93;;;3.50;;
7158;SDS011;63175;52.374;13.132;2023-02-28T05:02:29;4.03;;;3.53;;
7158;SDS011;63175;52.374;13.132;2023-02-28T05:04:56;3.30;;;2.93;;
7158;SDS011;63175;52.374;13.132;2023-02-28T05:07:23;6.33;;;4.00;;
7158;SDS011;63175;52.374;13.132;2023-02-28T05:09:50;3.67;;;3.27;;
7158;SDS011;63175;52.374;13.132;2023-02-28T05:12:18;4.70;;;3.20;;
7158;SDS011;63175;52.374;13.132;2023-02-28T05:14:45;3.67;;;3.37;;
7158;SDS011;63175;52.374;13.132;2023-02-28T05:17:13;3.73;;;3.30;;
7158;SDS011;63175;52.374;13.132;2023-02-28T05:19:40;4.40;;;3.37;;
7158;SDS011;63175;52.374;13.132;2023-02-28T05:22:11;4.53;;;3.10;;
7158;SDS011;63175;52.374;13.132;2023-02-28T05:24:39;3.80;;;3.40;;
7158;SDS011;63175;52.374;13.132;2023-02-28T05:27:07;4.03;;;3.63;;
7158;SDS011;63175;52.374;13.132;2023-02-28T05:29:34;3.33;;;3.03;;
7158;SDS011;63175;52.374;13.132;2023-02-28T05:32:08;4.07;;;3.67;;
7158;SDS011;63175;52.374;13.132;2023-02-28T05:34:38;3.53;;;3.20;;
7158;SDS011;63175;52.374;13.132;2023-02-28T05:37:05;5.30;;;3.50;;
7158;SDS011;63175;52.374;13.132;2023-02-28T05:39:32;6.10;;;3.53;;
7158;SDS011;63175;52.374;13.132;2023-02-28T05:41:59;5.07;;;3.50;;
7158;SDS011;63175;52.374;13.132;2023-02-28T05:44:26;5.07;;;4.23;;
7158;SDS011;63175;52.374;13.132;2023-02-28T05:46:53;6.20;;;4.37;;
7158;SDS011;63175;52.374;13.132;2023-02-28T05:49:20;8.27;;;4.40;;
7158;SDS011;63175;52.374;13.132;2023-02-28T05:51:48;9.63;;;5.83;;
7158;SDS011;63175;52.374;13.132;2023-02-28T05:54:15;8.23;;;5.33;;
7158;SDS011;63175;52.374;13.132;2023-02-28T05:56:42;6.20;;;4.70;;
7158;SDS011;63175;52.374;13.132;2023-02-28T05:59:10;5.83;;;4.80;;
7158;SDS011;63175;52.374;13.132;2023-02-28T06:01:37;5.27;;;4.40;;
7158;SDS011;63175;52.374;13.132;2023-02-28T06:04:06;4.40;;;4.00;;
7158;SDS011;63175;52.374;13.132;2023-02-28T06:06:34;4.53;;;3.40;;
7158;SDS011;63175;52.374;13.132;2023-02-28T06:09:03;4.33;;;3.53;;
7158;SDS011;63175;52.374;13.132;2023-02-28T06:11:30;5.20;;;3.70;;
7158;SDS011;63175;52.374;13.132;2023-02-28T06:13:57;5.13;;;3.83;;
7158;SDS011;63175;52.374;13.132;2023-02-28T06:16:25;6.10;;;4.40;;
7158;SDS011;63175;52.374;13.132;2023-02-28T06:18:53;4.43;;;3.53;;
7158;SDS011;63175;52.374;13.132;2023-02-28T06:21:21;4.87;;;3.63;;
7158;SDS011;63175;52.374;13.132;2023-02-28T06:23:49;4.00;;;3.60;;
7158;SDS011;63175;52.374;13.132;2023-02-28T06:26:17;4.53;;;3.90;;
7158;SDS011;63175;52.374;13.132;2023-02-28T06:28:44;4.07;;;3.70;;
7158;SDS011;63175;52.374;13.132;2023-02-28T06:31:12;6.60;;;4.10;;
7158;SDS011;63175;52.374;13.132;2023-02-28T06:33:40;5.27;;;4.10;;
7158;SDS011;63175;52.374;13.132;2023-02-28T06:36:07;4.97;;;4.07;;
7158;SDS011;63175;52.374;13.132;2023-02-28T06:38:35;7.20;;;4.33;;
7158;SDS011;63175;52.374;13.132;2023-02-28T06:41:03;6.17;;;4.37;;
7158;SDS011;63175;52.374;13.132;2023-02-28T06:43:34;6.10;;;4.27;;
7158;SDS011;63175;52.374;13.132;2023-02-28T06:46:03;7.60;;;4.27;;
7158;SDS011;63175;52.374;13.132;2023-02-28T06:48:31;5.57;;;4.10;;
7158;SDS011;63175;52.374;13.132;2023-02-28T06:51:01;7.70;;;4.07;;
7158;SDS011;63175;52.374;13.132;2023-02-28T06:53:29;5.43;;;4.20;;
7158;SDS011;63175;52.374;13.132;2023-02-28T06:55:56;4.07;;;3.67;;
7158;SDS011;63175;52.374;13.132;2023-02-28T06:58:23;4.80;;;3.37;;
7158;SDS011;63175;52.374;13.132;2023-02-28T07:00:51;4.83;;;4.33;;
7158;SDS011;63175;52.374;13.132;2023-02-28T07:03:19;4.27;;;3.70;;
7158;SDS011;63175;52.374;13.132;2023-02-28T07:05:46;5.77;;;3.40;;
7158;SDS011;63175;52.374;13.132;2023-02-28T07:08:13;3.40;;;3.20;;
7158;SDS011;63175;52.374;13.132;2023-02-28T07:10:40;4.80;;;3.83;;
7158;SDS011;63175;52.374;13.132;2023-02-28T07:13:07;5.77;;;3.70;;
7158;SDS011;63175;52.374;13.132;2023-02-28T07:15:35;3.90;;;3.50;;
7158;SDS011;63175;52.374;13.132;2023-02-28T07:18:03;4.20;;;3.80;;
7158;SDS011;63175;52.374;13.132;2023-02-28T07:20:30;5.17;;;4.67;;
7158;SDS011;63175;52.374;13.132;2023-02-28T07:22:57;5.03;;;3.93;;
7158;SDS011;63175;52.374;13.132;2023-02-28T07:25:24;4.23;;;3.70;;
7158;SDS011;63175;52.374;13.132;2023-02-28T07:27:53;4.70;;;3.60;;
7158;SDS011;63175;52.374;13.132;2023-02-28T07:30:20;4.67;;;3.60;;
7158;SDS011;63175;52.374;13.132;2023-02-28T07:32:47;4.63;;;3.57;;
7158;SDS011;63175;52.374;13.132;2023-02-28T07:35:15;4.40;;;4.00;;
7158;SDS011;63175;52.374;13.132;2023-02-28T07:37:43;4.80;;;3.70;;
7158;SDS011;63175;52.374;13.132;2023-02-28T07:40:12;5.53;;;4.23;;
7158;SDS011;63175;52.374;13.132;2023-02-28T07:42:39;5.10;;;3.70;;
7158;SDS011;63175;52.374;13.132;2023-02-28T07:45:07;5.50;;;4.40;;
7158;SDS011;63175;52.374;13.132;2023-02-28T07:47:36;4.13;;;3.47;;
7158;SDS011;63175;52.374;13.132;2023-02-28T07:50:04;3.97;;;3.57;;
7158;SDS011;63175;52.374;13.132;2023-02-28T07:52:32;4.60;;;3.67;;
7158;SDS011;63175;52.374;13.132;2023-02-28T07:54:59;6.00;;;3.27;;
7158;SDS011;63175;52.374;13.132;2023-02-28T07:57:26;5.50;;;3.87;;
7158;SDS011;63175;52.374;13.132;2023-02-28T07:59:53;3.60;;;3.30;;
7158;SDS011;63175;52.374;13.132;2023-02-28T08:02:19;13.57;;;3.27;;
7158;SDS011;63175;52.374;13.132;2023-02-28T08:04:46;9.53;;;3.40;;
7158;SDS011;63175;52.374;13.132;2023-02-28T08:07:14;5.60;;;3.57;;
7158;SDS011;63175;52.374;13.132;2023-02-28T08:09:42;3.70;;;2.87;;
7158;SDS011;63175;52.374;13.132;2023-02-28T08:12:10;5.93;;;3.70;;
7158;SDS011;63175;52.374;13.132;2023-02-28T08:14:37;3.30;;;3.00;;
7158;SDS011;63175;52.374;13.132;2023-02-28T08:17:05;5.87;;;2.77;;
7158;SDS011;63175;52.374;13.132;2023-02-28T08:19:32;6.17;;;4.07;;
7158;SDS011;63175;52.374;13.132;2023-02-28T08:21:59;3.40;;;2.73;;
7158;SDS011;63175;52.374;13.132;2023-02-28T08:24:26;3.50;;;3.00;;
7158;SDS011;63175;52.374;13.132;2023-02-28T08:26:54;3.27;;;2.60;;
7158;SDS011;63175;52.374;13.132;2023-02-28T08:29:21;2.87;;;2.40;;
7158;SDS011;63175;52.374;13.132;2023-02-28T08:31:48;7.60;;;3.67;;
7158;SDS011;63175;52.374;13.132;2023-02-28T08:34:15;7.30;;;4.10;;
7158;SDS011;63175;52.374;13.132;2023-02-28T08:36:43;6.03;;;3.23;;
7158;SDS011;63175;52.374;13.132;2023-02-28T08:39:10;5.83;;;3.00;;
7158;SDS011;63175;52.374;13.132;2023-02-28T08:41:37;8.00;;;3.07;;
7158;SDS011;63175;52.374;13.132;2023-02-28T08:44:06;6.73;;;3.30;;
7158;SDS011;63175;52.374;13.132;2023-02-28T08:46:32;3.23;;;2.30;;
7158;SDS011;63175;52.374;13.132;2023-02-28T08:48:59;3.93;;;2.53;;
7158;SDS011;63175;52.374;13.132;2023-02-28T08:51:27;6.50;;;3.13;;
7158;SDS011;63175;52.374;13.132;2023-02-28T08:53:55;2.93;;;2.63;;
7158;SDS011;63175;52.374;13.132;2023-02-28T08:56:25;5.83;;;2.63;;
7158;SDS011;63175;52.374;13.132;2023-02-28T08:58:53;2.90;;;2.60;;
7158;SDS011;63175;52.374;13.132;2023-02-28T09:01:23;3.57;;;2.70;;
7158;SDS011;63175;52.374;13.132;2023-02-28T09:03:52;3.17;;;2.70;;
7158;SDS011;63175;52.374;13.132;2023-02-28T09:06:20;2.57;;;2.37;;
7158;SDS011;63175;52.374;13.132;2023-02-28T09:08:48;2.90;;;2.50;;
7158;SDS011;63175;52.374;13.132;2023-02-28T09:11:15;3.47;;;2.40;;
7158;SDS011;63175;52.374;13.132;2023-02-28T09:13:43;4.13;;;2.50;;
7158;SDS011;63175;52.374;13.132;2023-02-28T09:16:11;2.50;;;2.30;;
7158;SDS011;63175;52.374;13.132;2023-02-28T09:18:41;2.23;;;1.87;;
7158;SDS011;63175;52.374;13.132;2023-02-28T09:21:09;3.57;;;1.93;;
7158;SDS011;63175;52.374;13.132;2023-02-28T09:23:39;3.73;;;1.73;;
7158;SDS011;63175;52.374;13.132;2023-02-28T09:26:07;2.27;;;1.90;;
7158;SDS011;63175;52.374;13.132;2023-02-28T09:28:34;2.97;;;2.07;;
7158;SDS011;63175;52.374;13.132;2023-02-28T09:31:01;3.03;;;1.50;;
7158;SDS011;63175;52.374;13.132;2023-02-28T09:33:29;2.13;;;1.03;;
7158;SDS011;63175;52.374;13.132;2023-02-28T09:36:02;2.00;;;1.80;;
7158;SDS011;63175;52.374;13.132;2023-02-28T09:38:29;2.30;;;1.70;;
7158;SDS011;63175;52.374;13.132;2023-02-28T09:40:57;1.80;;;1.60;;
7158;SDS011;63175;52.374;13.132;2023-02-28T09:43:26;3.03;;;1.23;;
7158;SDS011;63175;52.374;13.132;2023-02-28T09:45:56;1.43;;;1.00;;
7158;SDS011;63175;52.374;13.132;2023-02-28T09:48:27;2.70;;;1.47;;
7158;SDS011;63175;52.374;13.132;2023-02-28T09:51:02;3.00;;;1.50;;
7158;SDS011;63175;52.374;13.132;2023-02-28T09:53:31;1.27;;;1.10;;
7158;SDS011;63175;52.374;13.132;2023-02-28T09:56:01;3.80;;;1.53;;
7158;SDS011;63175;52.374;13.132;2023-02-28T09:58:32;3.23;;;1.70;;
7158;SDS011;63175;52.374;13.132;2023-02-28T10:01:03;1.20;;;1.00;;
7158;SDS011;63175;52.374;13.132;2023-02-28T10:03:35;1.60;;;1.20;;
7158;SDS011;63175;52.374;13.132;2023-02-28T10:06:09;5.13;;;1.50;;
7158;SDS011;63175;52.374;13.132;2023-02-28T10:08:41;1.43;;;1.33;;
7158;SDS011;63175;52.374;13.132;2023-02-28T10:11:14;2.30;;;1.73;;
7158;SDS011;63175;52.374;13.132;2023-02-28T10:13:46;1.77;;;1.60;;
7158;SDS011;63175;52.374;13.132;2023-02-28T10:16:21;1.90;;;1.53;;
7158;SDS011;63175;52.374;13.132;2023-02-28T10:18:54;2.70;;;1.60;;
7158;SDS011;63175;52.374;13.132;2023-02-28T10:21:27;1.37;;;1.27;;
7158;SDS011;63175;52.374;13.132;2023-02-28T10:24:01;1.57;;;1.47;;
7158;SDS011;63175;52.374;13.132;2023-02-28T10:26:31;1.40;;;1.30;;
7158;SDS011;63175;52.374;13.132;2023-02-28T10:28:58;1.90;;;1.77;;
7158;SDS011;63175;52.374;13.132;2023-02-28T10:31:25;4.60;;;2.10;;
7158;SDS011;63175;52.374;13.132;2023-02-28T10:33:52;2.80;;;1.70;;
7158;SDS011;63175;52.374;13.132;2023-02-28T10:36:20;2.07;;;1.87;;
7158;SDS011;63175;52.374;13.132;2023-02-28T10:38:49;2.27;;;2.07;;
7158;SDS011;63175;52.374;13.132;2023-02-28T10:41:17;1.90;;;1.30;;
7158;SDS011;63175;52.374;13.132;2023-02-28T10:43:53;1.43;;;1.20;;
7158;SDS011;63175;52.374;13.132;2023-02-28T10:46:40;1.63;;;1.40;;
7158;SDS011;63175;52.374;13.132;2023-02-28T10:49:12;2.07;;;1.43;;
7158;SDS011;63175;52.374;13.132;2023-02-28T10:51:41;1.40;;;1.30;;
7158;SDS011;63175;52.374;13.132;2023-02-28T10:54:16;1.40;;;1.30;;
7158;SDS011;63175;52.374;13.132;2023-02-28T10:56:45;1.17;;;1.03;;
7158;SDS011;63175;52.374;13.132;2023-02-28T10:59:31;1.73;;;1.63;;
7158;SDS011;63175;52.374;13.132;2023-02-28T11:01:58;1.43;;;1.33;;
7158;SDS011;63175;52.374;13.132;2023-02-28T11:04:32;1.20;;;1.10;;
7158;SDS011;63175;52.374;13.132;2023-02-28T11:07:03;1.93;;;1.50;;
7158;SDS011;63175;52.374;13.132;2023-02-28T11:09:34;2.30;;;1.80;;
7158;SDS011;63175;52.374;13.132;2023-02-28T11:12:06;1.53;;;1.37;;
7158;SDS011;63175;52.374;13.132;2023-02-28T11:14:47;2.23;;;2.03;;
7158;SDS011;63175;52.374;13.132;2023-02-28T11:17:19;2.67;;;2.17;;
7158;SDS011;63175;52.374;13.132;2023-02-28T11:19:49;3.37;;;2.33;;
7158;SDS011;63175;52.374;13.132;2023-02-28T11:22:18;5.07;;;1.60;;
7158;SDS011;63175;52.374;13.132;2023-02-28T11:24:49;3.17;;;1.67;;
7158;SDS011;63175;52.374;13.132;2023-02-28T11:32:59;2.03;;;1.80;;
7158;SDS011;63175;52.374;13.132;2023-02-28T11:35:28;4.53;;;2.40;;
7158;SDS011;63175;52.374;13.132;2023-02-28T11:37:59;4.00;;;2.40;;
7158;SDS011;63175;52.374;13.132;2023-02-28T11:40:30;3.50;;;2.80;;
7158;SDS011;63175;52.374;13.132;2023-02-28T11:43:06;2.40;;;2.20;;
7158;SDS011;63175;52.374;13.132;2023-02-28T11:45:45;2.93;;;2.00;;
7158;SDS011;63175;52.374;13.132;2023-02-28T11:48:25;3.00;;;1.70;;
7158;SDS011;63175;52.374;13.132;2023-02-28T11:50:58;2.60;;;2.17;;
7158;SDS011;63175;52.374;13.132;2023-02-28T11:56:36;2.17;;;2.00;;
7158;SDS011;63175;52.374;13.132;2023-02-28T11:59:12;3.30;;;2.00;;
7158;SDS011;63175;52.374;13.132;2023-02-28T12:01:58;2.47;;;1.60;;
7158;SDS011;63175;52.374;13.132;2023-02-28T12:04:34;2.47;;;1.70;;
7158;SDS011;63175;52.374;13.132;2023-02-28T12:07:18;1.80;;;1.70;;
7158;SDS011;63175;52.374;13.132;2023-02-28T12:09:54;2.90;;;1.83;;
7158;SDS011;63175;52.374;13.132;2023-02-28T12:12:32;2.40;;;1.67;;
7158;SDS011;63175;52.374;13.132;2023-02-28T12:15:16;4.03;;;2.40;;
7158;SDS011;63175;52.374;13.132;2023-02-28T12:18:13;3.57;;;2.40;;
7158;SDS011;63175;52.374;13.132;2023-02-28T12:20:57;2.30;;;1.70;;
7158;SDS011;63175;52.374;13.132;2023-02-28T12:23:41;3.97;;;2.43;;
7158;SDS011;63175;52.374;13.132;2023-02-28T12:26:17;2.80;;;2.13;;
7158;SDS011;63175;52.374;13.132;2023-02-28T12:28:52;3.10;;;2.40;;
7158;SDS011;63175;52.374;13.132;2023-02-28T12:31:26;2.83;;;2.07;;
7158;SDS011;63175;52.374;13.132;2023-02-28T12:33:59;3.60;;;1.93;;
7158;SDS011;63175;52.374;13.132;2023-02-28T12:36:29;6.53;;;2.40;;
7158;SDS011;63175;52.374;13.132;2023-02-28T12:38:56;1.90;;;1.80;;
7158;SDS011;63175;52.374;13.132;2023-02-28T12:41:29;1.73;;;1.60;;
7158;SDS011;63175;52.374;13.132;2023-02-28T12:44:05;1.80;;;1.70;;
7158;SDS011;63175;52.374;13.132;2023-02-28T12:46:36;4.27;;;2.87;;
7158;SDS011;63175;52.374;13.132;2023-02-28T12:49:08;2.40;;;2.20;;
7158;SDS011;63175;52.374;13.132;2023-02-28T12:51:39;3.67;;;2.30;;
7158;SDS011;63175;52.374;13.132;2023-02-28T12:54:12;2.43;;;2.23;;
7158;SDS011;63175;52.374;13.132;2023-02-28T12:56:47;3.33;;;2.17;;
7158;SDS011;63175;52.374;13.132;2023-02-28T12:59:22;2.23;;;2.00;;
7158;SDS011;63175;52.374;13.132;2023-02-28T13:02:02;3.13;;;2.77;;
7158;SDS011;63175;52.374;13.132;2023-02-28T13:04:50;6.80;;;2.40;;
7158;SDS011;63175;52.374;13.132;2023-02-28T13:10:42;2.27;;;2.07;;
7158;SDS011;63175;52.374;13.132;2023-02-28T13:13:14;2.67;;;2.40;;
7158;SDS011;63175;52.374;13.132;2023-02-28T13:15:57;2.03;;;1.93;;
7158;SDS011;63175;52.374;13.132;2023-02-28T13:18:30;2.43;;;2.23;;
7158;SDS011;63175;52.374;13.132;2023-02-28T13:21:01;3.10;;;2.80;;
7158;SDS011;63175;52.374;13.132;2023-02-28T13:23:55;5.60;;;3.17;;
7158;SDS011;63175;52.374;13.132;2023-02-28T13:29:49;2.27;;;1.93;;
7158;SDS011;63175;52.374;13.132;2023-02-28T13:32:30;1.80;;;1.70;;
7158;SDS011;63175;52.374;13.132;2023-02-28T13:38:18;2.70;;;2.50;;
7158;SDS011;63175;52.374;13.132;2023-02-28T13:40:50;3.47;;;2.10;;
7158;SDS011;63175;52.374;13.132;2023-02-28T13:43:17;3.00;;;2.50;;
7158;SDS011;63175;52.374;13.132;2023-02-28T13:48:37;3.13;;;2.40;;
7158;SDS011;63175;52.374;13.132;2023-02-28T13:54:07;1.63;;;1.53;;
7158;SDS011;63175;52.374;13.132;2023-02-28T13:56:48;1.77;;;1.67;;
7158;SDS011;63175;52.374;13.132;2023-02-28T13:59:26;2.13;;;1.90;;
7158;SDS011;63175;52.374;13.132;2023-02-28T14:02:02;2.80;;;2.57;;
7158;SDS011;63175;52.374;13.132;2023-02-28T14:04:51;4.20;;;2.70;;
7158;SDS011;63175;52.374;13.132;2023-02-28T14:07:27;2.60;;;2.40;;
7158;SDS011;63175;52.374;13.132;2023-02-28T14:09:58;2.83;;;2.50;;
7158;SDS011;63175;52.374;13.132;2023-02-28T14:18:17;2.80;;;2.40;;
7158;SDS011;63175;52.374;13.132;2023-02-28T14:20:49;2.43;;;2.23;;
7158;SDS011;63175;52.374;13.132;2023-02-28T14:23:33;4.07;;;2.67;;
7158;SDS011;63175;52.374;13.132;2023-02-28T14:26:10;4.60;;;3.30;;
7158;SDS011;63175;52.374;13.132;2023-02-28T14:28:49;4.67;;;3.00;;
7158;SDS011;63175;52.374;13.132;2023-02-28T14:31:28;4.33;;;3.00;;
7158;SDS011;63175;52.374;13.132;2023-02-28T14:34:04;3.90;;;2.93;;
7158;SDS011;63175;52.374;13.132;2023-02-28T14:36:44;4.03;;;2.47;;
7158;SDS011;63175;52.374;13.132;2023-02-28T14:39:12;2.77;;;2.33;;
7158;SDS011;63175;52.374;13.132;2023-02-28T14:41:41;3.43;;;2.60;;
7158;SDS011;63175;52.374;13.132;2023-02-28T14:44:13;2.50;;;2.30;;
7158;SDS011;63175;52.374;13.132;2023-02-28T14:46:42;3.00;;;2.70;;
7158;SDS011;63175;52.374;13.132;2023-02-28T14:49:13;5.83;;;3.30;;
7158;SDS011;63175;52.374;13.132;2023-02-28T14:51:44;2.20;;;2.10;;
7158;SDS011;63175;52.374;13.132;2023-02-28T14:54:13;2.70;;;2.40;;
7158;SDS011;63175;52.374;13.132;2023-02-28T14:56:42;2.40;;;2.00;;
7158;SDS011;63175;52.374;13.132;2023-02-28T14:59:26;2.40;;;2.10;;
7158;SDS011;63175;52.374;13.132;2023-02-28T15:02:14;2.90;;;2.00;;
7158;SDS011;63175;52.374;13.132;2023-02-28T15:04:51;6.07;;;2.10;;
7158;SDS011;63175;52.374;13.132;2023-02-28T15:07:22;2.67;;;2.00;;
7158;SDS011;63175;52.374;13.132;2023-02-28T15:10:06;2.87;;;1.80;;
7158;SDS011;63175;52.374;13.132;2023-02-28T15:12:39;3.53;;;2.30;;
7158;SDS011;63175;52.374;13.132;2023-02-28T15:15:13;2.10;;;1.90;;
7158;SDS011;63175;52.374;13.132;2023-02-28T15:17:42;2.47;;;2.03;;
7158;SDS011;63175;52.374;13.132;2023-02-28T15:20:11;1.70;;;1.60;;
7158;SDS011;63175;52.374;13.132;2023-02-28T15:22:41;2.90;;;2.20;;
7158;SDS011;63175;52.374;13.132;2023-02-28T15:25:09;3.20;;;2.60;;
7158;SDS011;63175;52.374;13.132;2023-02-28T15:27:42;9.67;;;4.60;;
7158;SDS011;63175;52.374;13.132;2023-02-28T15:30:14;4.97;;;3.40;;
7158;SDS011;63175;52.374;13.132;2023-02-28T15:32:43;4.33;;;3.10;;
7158;SDS011;63175;52.374;13.132;2023-02-28T15:35:18;3.73;;;2.23;;
7158;SDS011;63175;52.374;13.132;2023-02-28T15:37:48;3.47;;;2.60;;
7158;SDS011;63175;52.374;13.132;2023-02-28T15:40:22;2.53;;;1.80;;
7158;SDS011;63175;52.374;13.132;2023-02-28T15:42:58;2.73;;;2.50;;
7158;SDS011;63175;52.374;13.132;2023-02-28T15:45:32;6.03;;;3.03;;